createdAt,value
2022-08-22T00:01:23.949Z,2.40
2022-08-22T00:03:12.735Z,3.40
2022-08-22T00:03:16.334Z,3.17
2022-08-22T00:04:18.940Z,2.50
2022-08-22T00:07:06.381Z,2.10
2022-08-22T00:09:58.012Z,2.33
2022-08-22T00:12:33.486Z,2.15
2022-08-22T00:15:42.301Z,2.28
2022-08-22T00:18:11.941Z,2.20
2022-08-22T00:21:32.732Z,2.08
2022-08-22T00:24:09.538Z,2.00
2022-08-22T00:27:00.965Z,1.85
2022-08-22T00:29:46.494Z,2.00
2022-08-22T00:32:28.062Z,2.10
2022-08-22T00:35:06.019Z,2.10
2022-08-22T00:37:42.229Z,2.10
2022-08-22T00:40:25.189Z,2.25
2022-08-22T00:43:20.214Z,2.60
2022-08-22T00:46:06.191Z,2.53
2022-08-22T00:49:13.182Z,2.70
2022-08-22T00:52:27.456Z,3.30
2022-08-22T00:55:10.086Z,2.95
2022-08-22T00:58:00.173Z,3.25
2022-08-22T01:00:35.255Z,3.35
2022-08-22T01:03:26.273Z,3.17
2022-08-22T01:06:21.069Z,3.50
2022-08-22T01:09:10.726Z,4.17
2022-08-22T01:11:45.543Z,3.30
2022-08-22T01:14:34.412Z,2.95
2022-08-22T01:17:45.028Z,3.08
2022-08-22T01:20:50.361Z,3.17
2022-08-22T01:23:37.530Z,4.90
2022-08-22T01:26:49.373Z,10.98
2022-08-22T01:29:56.392Z,16.67
2022-08-22T01:32:43.442Z,20.23
2022-08-22T01:35:29.717Z,16.73
2022-08-22T01:38:19.506Z,11.18
2022-08-22T01:41:03.587Z,7.22
2022-08-22T01:44:15.086Z,6.25
2022-08-22T01:46:56.413Z,4.57
2022-08-22T01:49:38.239Z,4.43
2022-08-22T01:52:19.536Z,4.32
2022-08-22T01:55:03.774Z,3.83
2022-08-22T01:57:32.604Z,2.90
2022-08-22T02:00:09.474Z,3.78
2022-08-22T02:03:08.523Z,4.65
2022-08-22T02:05:54.186Z,2.70
2022-08-22T02:08:37.745Z,2.08
2022-08-22T02:11:32.730Z,2.38
2022-08-22T02:14:41.346Z,3.55
2022-08-22T02:17:20.246Z,2.10
2022-08-22T02:20:10.539Z,2.67
2022-08-22T02:22:54.522Z,2.72
2022-08-22T02:25:26.748Z,3.50
2022-08-22T02:28:11.673Z,2.30
2022-08-22T02:31:17.057Z,2.40
2022-08-22T02:34:21.433Z,2.67
2022-08-22T02:36:58.224Z,2.70
2022-08-22T02:39:39.469Z,1.70
2022-08-22T02:42:34.743Z,1.77
2022-08-22T02:48:23.695Z,1.80
2022-08-22T02:53:40.027Z,1.90
2022-08-22T02:56:17.654Z,1.80
2022-08-22T02:59:12.896Z,2.35
2022-08-22T03:01:45.190Z,2.83
2022-08-22T03:04:32.043Z,1.45
2022-08-22T03:07:18.921Z,1.13
2022-08-22T03:09:57.306Z,1.58
2022-08-22T03:12:57.432Z,1.50
2022-08-22T03:15:40.622Z,1.55
2022-08-22T03:18:29.676Z,1.50
2022-08-22T03:21:14.623Z,1.20
2022-08-22T03:23:50.102Z,19.63
2022-08-22T03:26:28.605Z,1.30
2022-08-22T03:29:17.585Z,3.03
2022-08-22T03:32:07.264Z,1.35
2022-08-22T03:34:37.111Z,1.35
2022-08-22T03:37:41.325Z,0.90
2022-08-22T03:40:31.814Z,1.10
2022-08-22T03:43:15.310Z,1.50
2022-08-22T03:46:37.223Z,1.20
2022-08-22T03:49:42.693Z,1.20
2022-08-22T03:52:29.847Z,1.40
2022-08-22T03:55:04.203Z,0.95
2022-08-22T03:57:53.727Z,0.90
2022-08-22T04:01:06.203Z,1.10
2022-08-22T04:04:11.994Z,1.00
2022-08-22T04:06:49.245Z,12.48
2022-08-22T04:09:43.570Z,3.53
2022-08-22T04:12:30.200Z,1.20
2022-08-22T04:15:14.998Z,2.28
2022-08-22T04:18:27.693Z,2.15
2022-08-22T04:21:08.141Z,2.10
2022-08-22T04:24:07.188Z,2.22
2022-08-22T04:26:48.757Z,1.40
2022-08-22T04:29:29.410Z,1.60
2022-08-22T04:32:26.015Z,1.30
2022-08-22T04:35:03.909Z,1.90
2022-08-22T04:37:54.603Z,6.47
2022-08-22T04:40:56.455Z,1.35
2022-08-22T04:43:43.321Z,1.40
2022-08-22T04:46:24.791Z,1.17
2022-08-22T04:49:42.354Z,3.92
2022-08-22T04:52:46.083Z,2.05
2022-08-22T04:55:27.731Z,1.30
2022-08-22T04:58:26.363Z,1.40
2022-08-22T05:01:13.815Z,1.70
2022-08-22T05:03:52.015Z,2.83
2022-08-22T05:06:24.323Z,4.70
2022-08-22T05:08:53.689Z,3.20
2022-08-22T05:11:25.293Z,3.17
2022-08-22T05:14:01.485Z,1.50
2022-08-22T05:16:39.994Z,1.52
2022-08-22T05:19:17.458Z,2.22
2022-08-22T05:21:51.317Z,1.50
2022-08-22T05:24:37.145Z,2.10
2022-08-22T05:27:12.894Z,2.42
2022-08-22T05:29:46.325Z,2.05
2022-08-22T05:32:26.993Z,1.60
2022-08-22T05:35:01.369Z,1.30
2022-08-22T05:37:48.171Z,1.38
2022-08-22T05:40:24.110Z,3.25
2022-08-22T05:42:54.615Z,1.50
2022-08-22T05:45:24.633Z,1.13
2022-08-22T05:48:04.093Z,1.67
2022-08-22T05:50:41.593Z,1.73
2022-08-22T05:53:39.606Z,1.40
2022-08-22T05:56:32.436Z,1.55
2022-08-22T05:59:21.078Z,1.48
2022-08-22T06:01:52.760Z,1.30
2022-08-22T06:04:32.165Z,1.58
2022-08-22T06:07:10.145Z,1.50
2022-08-22T06:09:50.006Z,2.20
2022-08-22T06:12:43.796Z,2.08
2022-08-22T06:15:35.571Z,1.15
2022-08-22T06:18:12.679Z,2.20
2022-08-22T06:20:48.683Z,1.85
2022-08-22T06:23:27.423Z,1.50
2022-08-22T06:26:00.520Z,1.35
2022-08-22T06:28:39.135Z,1.20
2022-08-22T06:31:37.596Z,1.33
2022-08-22T06:34:06.125Z,4.88
2022-08-22T06:36:38.165Z,1.58
2022-08-22T06:39:28.047Z,1.40
2022-08-22T06:42:16.721Z,6.05
2022-08-22T06:44:55.136Z,5.25
2022-08-22T06:47:29.486Z,2.58
2022-08-22T06:50:07.287Z,2.33
2022-08-22T06:53:14.840Z,5.22
2022-08-22T06:55:49.585Z,1.50
2022-08-22T06:58:22.756Z,2.17
2022-08-22T07:01:05.760Z,2.53
2022-08-22T07:03:48.325Z,1.88
2022-08-22T07:06:20.158Z,5.60
2022-08-22T07:08:54.563Z,1.92
2022-08-22T07:11:32.517Z,1.60
2022-08-22T07:14:07.066Z,2.10
2022-08-22T07:16:43.286Z,2.17
2022-08-22T07:19:27.795Z,1.40
2022-08-22T07:21:57.234Z,1.13
2022-08-22T07:24:32.923Z,1.40
2022-08-22T07:27:09.589Z,2.08
2022-08-22T07:30:10.265Z,1.35
2022-08-22T07:33:25.855Z,2.63
2022-08-22T07:35:59.870Z,1.63
2022-08-22T07:38:45.779Z,1.45
2022-08-22T07:41:25.830Z,2.20
2022-08-22T07:44:16.120Z,1.58
2022-08-22T07:46:53.517Z,1.50
2022-08-22T07:49:26.894Z,1.20
2022-08-22T07:52:00.035Z,2.33
2022-08-22T07:54:47.747Z,1.75
2022-08-22T07:57:25.660Z,1.40
2022-08-22T08:00:02.129Z,1.70
2022-08-22T08:02:48.026Z,1.45
2022-08-22T08:05:18.252Z,1.75
2022-08-22T08:07:48.650Z,1.65
2022-08-22T08:10:24.544Z,1.75
2022-08-22T08:13:02.391Z,1.55
2022-08-22T08:15:36.534Z,1.33
2022-08-22T08:18:15.140Z,1.30
2022-08-22T08:20:43.883Z,1.50
2022-08-22T08:23:23.641Z,1.40
2022-08-22T08:26:08.401Z,1.27
2022-08-22T08:28:46.975Z,1.30
2022-08-22T08:31:25.736Z,1.38
2022-08-22T08:34:10.282Z,1.50
2022-08-22T08:36:49.432Z,1.55
2022-08-22T08:39:38.442Z,2.58
2022-08-22T08:42:28.222Z,1.55
2022-08-22T08:45:16.267Z,1.73
2022-08-22T08:48:06.170Z,1.40
2022-08-22T08:50:57.500Z,2.08
2022-08-22T08:54:02.292Z,2.90
2022-08-22T08:57:00.442Z,1.95
2022-08-22T09:00:00.654Z,1.85
2022-08-22T09:02:47.706Z,1.33
2022-08-22T09:05:44.006Z,1.70
2022-08-22T09:08:36.681Z,1.50
2022-08-22T09:11:28.343Z,1.27
2022-08-22T09:14:24.144Z,3.20
2022-08-22T09:17:22.860Z,5.10
2022-08-22T09:20:17.593Z,2.90
2022-08-22T09:23:04.603Z,4.40
2022-08-22T09:25:46.149Z,2.80
2022-08-22T09:28:30.765Z,2.30
2022-08-22T09:31:16.988Z,1.90
2022-08-22T09:34:13.049Z,1.52
2022-08-22T09:37:03.630Z,1.80
2022-08-22T09:39:51.288Z,1.50
2022-08-22T09:42:38.427Z,1.60
2022-08-22T09:45:34.381Z,2.30
2022-08-22T09:48:08.529Z,2.55
2022-08-22T09:50:54.555Z,1.60
2022-08-22T09:53:58.857Z,1.60
2022-08-22T09:56:53.737Z,1.83
2022-08-22T09:59:33.717Z,2.90
2022-08-22T10:02:15.493Z,3.75
2022-08-22T10:04:53.070Z,4.10
2022-08-22T10:07:52.952Z,1.60
2022-08-22T10:10:27.035Z,1.40
2022-08-22T10:13:11.205Z,1.23
2022-08-22T10:15:58.143Z,1.50
2022-08-22T10:19:12.330Z,1.50
2022-08-22T10:21:49.599Z,1.60
2022-08-22T10:24:31.697Z,3.58
2022-08-22T10:27:14.846Z,1.42
2022-08-22T10:29:55.073Z,8.55
2022-08-22T10:32:59.876Z,12.15
2022-08-22T10:35:56.110Z,4.45
2022-08-22T10:38:46.202Z,2.10
2022-08-22T10:41:40.360Z,2.25
2022-08-22T10:44:24.590Z,3.05
2022-08-22T10:46:59.423Z,1.50
2022-08-22T10:50:00.011Z,1.55
2022-08-22T10:52:33.429Z,1.42
2022-08-22T10:55:13.182Z,2.78
2022-08-22T10:57:52.136Z,11.50
2022-08-22T11:00:49.956Z,2.75
2022-08-22T11:03:39.885Z,1.90
2022-08-22T11:06:34.753Z,4.18
2022-08-22T11:09:14.245Z,1.80
2022-08-22T11:12:13.443Z,1.20
2022-08-22T11:14:50.824Z,1.60
2022-08-22T11:17:40.616Z,1.40
2022-08-22T11:20:27.798Z,1.48
2022-08-22T11:23:28.844Z,1.60
2022-08-22T11:26:47.315Z,2.45
2022-08-22T11:29:52.474Z,1.30
2022-08-22T11:32:36.247Z,1.90
2022-08-22T11:35:23.543Z,1.27
2022-08-22T11:38:32.583Z,1.58
2022-08-22T11:41:27.546Z,1.40
2022-08-22T11:44:03.398Z,1.27
2022-08-22T11:46:36.747Z,2.15
2022-08-22T11:49:31.584Z,1.30
2022-08-22T11:52:09.868Z,2.00
2022-08-22T11:55:12.666Z,1.60
2022-08-22T11:57:46.373Z,1.33
2022-08-22T12:00:34.878Z,1.50
2022-08-22T12:03:24.593Z,2.38
2022-08-22T12:06:15.391Z,1.88
2022-08-22T12:08:53.153Z,2.10
2022-08-22T12:11:59.665Z,7.57
2022-08-22T12:14:46.114Z,7.25
2022-08-22T12:17:55.916Z,2.22
2022-08-22T12:20:48.503Z,8.43
2022-08-22T12:24:01.110Z,6.50
2022-08-22T12:26:51.272Z,5.32
2022-08-22T12:29:44.628Z,8.52
2022-08-22T12:32:38.018Z,8.32
2022-08-22T12:35:40.911Z,11.80
2022-08-22T12:38:32.812Z,9.88
2022-08-22T12:41:37.639Z,7.72
2022-08-22T12:44:30.898Z,3.83
2022-08-22T12:47:15.224Z,10.75
2022-08-22T12:50:14.305Z,8.82
2022-08-22T12:53:00.603Z,13.35
2022-08-22T12:55:46.035Z,26.48
2022-08-22T12:58:51.322Z,26.48
2022-08-22T13:01:23.364Z,15.52
2022-08-22T13:04:08.876Z,23.15
2022-08-22T13:09:20.669Z,34.40
2022-08-22T13:12:03.430Z,22.08
2022-08-22T13:17:24.450Z,23.50
2022-08-22T13:20:08.655Z,20.75
2022-08-22T13:22:45.033Z,15.27
2022-08-22T13:25:26.170Z,12.73
2022-08-22T13:28:04.414Z,8.63
2022-08-22T13:30:39.961Z,7.18
2022-08-22T13:33:14.954Z,6.65
2022-08-22T13:35:55.342Z,6.90
2022-08-22T13:38:28.826Z,6.70
2022-08-22T13:40:59.374Z,6.93
2022-08-22T13:43:53.137Z,8.00
2022-08-22T13:46:31.079Z,8.27
2022-08-22T13:49:09.104Z,9.98
2022-08-22T13:51:54.474Z,10.43
2022-08-22T13:54:45.304Z,10.85
2022-08-22T13:57:31.213Z,11.00
2022-08-22T14:00:28.669Z,10.73
2022-08-22T14:03:05.656Z,9.30
2022-08-22T14:05:55.409Z,8.93
2022-08-22T14:08:32.781Z,9.13
2022-08-22T14:11:08.312Z,8.90
2022-08-22T14:14:02.007Z,8.73
2022-08-22T14:16:38.812Z,7.50
2022-08-22T14:19:11.380Z,7.88
2022-08-22T14:21:52.078Z,6.47
2022-08-22T14:24:29.790Z,6.80
2022-08-22T14:27:06.962Z,7.75
2022-08-22T14:30:06.848Z,7.55
2022-08-22T14:33:05.185Z,6.97
2022-08-22T14:35:43.269Z,7.30
2022-08-22T14:38:27.362Z,7.80
2022-08-22T14:41:52.332Z,8.63
2022-08-22T14:44:39.508Z,8.98
2022-08-22T14:47:54.659Z,9.77
2022-08-22T14:50:13.039Z,9.52
2022-08-22T14:52:45.315Z,11.48
2022-08-22T14:55:27.174Z,20.45
2022-08-22T14:58:07.694Z,23.48
2022-08-22T15:00:57.810Z,33.97
2022-08-22T15:03:33.883Z,28.65
2022-08-22T15:06:04.237Z,22.80
2022-08-22T15:08:49.534Z,29.67
2022-08-22T15:11:23.918Z,27.38
2022-08-22T15:14:14.424Z,27.30
2022-08-22T15:17:02.486Z,32.72
2022-08-22T15:19:36.525Z,41.40
2022-08-22T15:22:14.243Z,37.72
2022-08-22T15:24:56.341Z,33.45
2022-08-22T15:27:27.739Z,40.05
2022-08-22T15:30:06.774Z,43.42
2022-08-22T15:32:49.660Z,43.22
2022-08-22T15:35:32.155Z,38.25
2022-08-22T15:38:11.249Z,47.85
2022-08-22T15:40:46.766Z,44.97
2022-08-22T15:43:24.991Z,54.33
2022-08-22T15:46:17.913Z,53.80
2022-08-22T15:49:01.507Z,52.85
2022-08-22T15:52:06.162Z,56.30
2022-08-22T15:54:51.237Z,62.35
2022-08-22T15:57:28.477Z,64.45
2022-08-22T16:00:27.858Z,55.08
2022-08-22T16:03:02.632Z,55.13
2022-08-22T16:05:42.993Z,51.30
2022-08-22T16:08:18.124Z,42.70
2022-08-22T16:11:14.905Z,39.80
2022-08-22T16:13:45.478Z,35.40
2022-08-22T16:16:26.291Z,27.42
2022-08-22T16:18:54.947Z,22.90
2022-08-22T16:21:26.630Z,21.10
2022-08-22T16:23:57.194Z,17.13
2022-08-22T16:26:39.349Z,14.98
2022-08-22T16:29:41.301Z,16.40
2022-08-22T16:32:15.708Z,13.45
2022-08-22T16:34:46.517Z,11.75
2022-08-22T16:37:22.976Z,11.48
2022-08-22T16:40:07.694Z,10.32
2022-08-22T16:42:47.794Z,10.85
2022-08-22T16:45:25.675Z,9.10
2022-08-22T16:47:58.889Z,9.95
2022-08-22T16:51:10.625Z,9.43
2022-08-22T16:53:45.765Z,10.35
2022-08-22T16:56:36.072Z,10.10
2022-08-22T16:59:23.734Z,10.30
2022-08-22T17:02:16.153Z,11.05
2022-08-22T17:05:20.703Z,9.05
2022-08-22T17:08:04.183Z,8.43
2022-08-22T17:10:36.016Z,6.90
2022-08-22T17:13:26.472Z,7.18
2022-08-22T17:16:33.858Z,8.05
2022-08-22T17:19:32.965Z,8.45
2022-08-22T17:22:29.080Z,9.18
2022-08-22T17:25:45.311Z,8.77
2022-08-22T17:28:21.943Z,10.80
2022-08-22T17:31:02.604Z,17.27
2022-08-22T17:33:59.894Z,67.65
2022-08-22T17:36:51.724Z,16.73
2022-08-22T17:39:56.019Z,11.13
2022-08-22T17:42:36.118Z,30.33
2022-08-22T17:45:16.670Z,12.90
2022-08-22T17:47:53.230Z,9.43
2022-08-22T17:50:35.233Z,14.18
2022-08-22T17:53:16.098Z,19.10
2022-08-22T17:56:06.883Z,7.07
2022-08-22T17:59:08.224Z,68.22
2022-08-22T18:01:45.162Z,9.63
2022-08-22T18:04:23.712Z,17.70
2022-08-22T18:07:06.213Z,7.93
2022-08-22T18:10:00.282Z,47.25
2022-08-22T18:12:46.783Z,12.00
2022-08-22T18:15:40.531Z,9.57
2022-08-22T18:18:30.366Z,20.25
2022-08-22T18:21:30.391Z,9.88
2022-08-22T18:24:06.411Z,10.13
2022-08-22T18:26:47.322Z,9.90
2022-08-22T18:29:21.211Z,10.52
2022-08-22T18:32:03.439Z,21.23
2022-08-22T18:34:53.804Z,9.15
2022-08-22T18:37:35.324Z,8.60
2022-08-22T18:40:29.776Z,7.82
2022-08-22T18:43:19.092Z,17.70
2022-08-22T18:45:47.536Z,7.63
2022-08-22T18:49:05.449Z,24.13
2022-08-22T18:51:38.211Z,7.13
2022-08-22T18:54:11.694Z,8.50
2022-08-22T18:56:51.763Z,9.40
2022-08-22T18:59:47.666Z,7.25
2022-08-22T19:02:34.735Z,30.10
2022-08-22T19:05:34.146Z,24.13
2022-08-22T19:08:19.918Z,11.20
2022-08-22T19:11:14.696Z,13.27
2022-08-22T19:14:09.552Z,8.33
2022-08-22T19:17:05.349Z,7.28
2022-08-22T19:20:27.872Z,7.40
2022-08-22T19:23:34.857Z,8.18
2022-08-22T19:26:24.950Z,7.38
2022-08-22T19:29:18.017Z,7.05
2022-08-22T19:32:02.608Z,7.78
2022-08-22T19:34:39.531Z,7.65
2022-08-22T19:37:32.210Z,8.48
2022-08-22T19:40:10.110Z,18.58
2022-08-22T19:42:44.804Z,8.02
2022-08-22T19:45:29.529Z,8.40
2022-08-22T19:48:14.286Z,12.68
2022-08-22T19:50:44.589Z,24.98
2022-08-22T19:53:34.376Z,8.27
2022-08-22T19:56:33.653Z,12.32
2022-08-22T19:59:21.247Z,36.10
2022-08-22T20:02:12.925Z,23.23
2022-08-22T20:04:53.364Z,33.60
2022-08-22T20:07:43.195Z,62.92
2022-08-22T20:10:17.896Z,49.78
2022-08-22T20:13:20.039Z,46.17
2022-08-22T20:16:14.171Z,16.40
2022-08-22T20:19:08.529Z,46.05
2022-08-22T20:21:47.356Z,24.30
2022-08-22T20:24:47.386Z,23.63
2022-08-22T20:27:32.527Z,11.70
2022-08-22T20:30:12.666Z,28.13
2022-08-22T20:32:51.276Z,21.63
2022-08-22T20:35:23.725Z,28.15
2022-08-22T20:38:06.979Z,9.60
2022-08-22T20:41:11.070Z,22.55
2022-08-22T20:43:53.789Z,7.40
2022-08-22T20:46:47.431Z,6.97
2022-08-22T20:49:29.490Z,15.15
2022-08-22T20:52:01.190Z,7.55
2022-08-22T20:54:35.053Z,7.13
2022-08-22T20:57:15.165Z,54.35
2022-08-22T20:59:53.151Z,33.38
2022-08-22T21:02:42.307Z,7.03
2022-08-22T21:05:13.992Z,6.93
2022-08-22T21:07:46.032Z,6.60
2022-08-22T21:10:45.893Z,6.30
2022-08-22T21:13:20.592Z,42.55
2022-08-22T21:16:32.545Z,57.45
2022-08-22T21:19:05.220Z,18.35
2022-08-22T21:21:35.629Z,6.50
2022-08-22T21:24:10.159Z,29.73
2022-08-22T21:26:50.341Z,8.73
2022-08-22T21:29:18.753Z,32.78
2022-08-22T21:31:50.209Z,18.10
2022-08-22T21:34:27.884Z,10.80
2022-08-22T21:37:03.120Z,4.60
2022-08-22T21:39:45.482Z,5.30
2022-08-22T21:42:25.102Z,5.20
2022-08-22T21:44:59.388Z,9.05
2022-08-22T21:47:33.275Z,55.83
2022-08-22T21:50:13.820Z,86.35
2022-08-22T21:53:04.373Z,26.40
2022-08-22T21:55:34.564Z,5.90
2022-08-22T21:58:13.656Z,5.28
2022-08-22T22:01:32.547Z,5.43
2022-08-22T22:04:01.677Z,37.97
2022-08-22T22:06:30.282Z,12.98
2022-08-22T22:08:59.236Z,5.55
2022-08-22T22:11:28.040Z,6.03
2022-08-22T22:13:56.807Z,5.90
2022-08-22T22:16:28.331Z,5.40
2022-08-22T22:18:57.721Z,6.07
2022-08-22T22:21:26.525Z,5.10
2022-08-22T22:23:56.446Z,19.98
2022-08-22T22:26:27.525Z,24.95
2022-08-22T22:28:59.241Z,9.63
2022-08-22T22:31:27.954Z,6.60
2022-08-22T22:33:56.722Z,5.55
2022-08-22T22:36:27.455Z,11.18
2022-08-22T22:38:56.418Z,5.82
2022-08-22T22:41:26.312Z,5.43
2022-08-22T22:43:56.295Z,5.28
2022-08-22T22:46:27.894Z,5.53
2022-08-22T22:48:58.177Z,6.05
2022-08-22T22:51:26.927Z,6.15
2022-08-22T22:53:57.484Z,6.65
2022-08-22T22:56:26.961Z,8.10
2022-08-22T22:59:00.884Z,7.47
2022-08-22T23:02:10.839Z,8.13
2022-08-22T23:04:41.929Z,6.80
2022-08-22T23:07:12.637Z,9.18
2022-08-22T23:09:45.166Z,6.15
2022-08-22T23:12:15.387Z,6.32
2022-08-22T23:14:44.500Z,9.05
2022-08-22T23:17:13.346Z,6.05
2022-08-22T23:19:42.971Z,7.10
2022-08-22T23:22:14.743Z,6.38
2022-08-22T23:24:43.584Z,6.30
2022-08-22T23:27:12.919Z,6.05
2022-08-22T23:29:42.872Z,6.30
2022-08-22T23:32:12.666Z,6.38
2022-08-22T23:34:46.544Z,5.88
2022-08-22T23:37:17.705Z,6.37
2022-08-22T23:39:46.595Z,5.88
2022-08-22T23:42:16.202Z,5.90
2022-08-22T23:44:46.135Z,6.60
2022-08-22T23:47:16.072Z,5.85
2022-08-22T23:49:45.404Z,5.80
2022-08-22T23:52:14.187Z,6.88
2022-08-22T23:54:43.141Z,6.45
2022-08-22T23:57:12.731Z,7.10
2022-08-22T23:59:48.020Z,6.55
